Time;durP1;ratioP1;P1;durP2;ratioP2;P2;SDS_P1;SDS_P2;PMS_P1;PMS_P2;Temp;Humidity;BMP_temperature;BMP_pressure;BME280_temperature;BME280_humidity;BME280_pressure;Samples;Min_cycle;Max_cycle;Signal;HPM_P1;HPM_P2
2021/04/11 00:02:15;;;;;;;79.57;50.58;;;;;;;7.54;100.00;100082.59;5165679;28;20030;-77
2021/04/11 00:04:45;;;;;;;80.85;50.83;;;;;;;7.55;100.00;100078.28;5170766;28;20383;-77
2021/04/11 00:07:16;;;;;;;76.97;52.20;;;;;;;7.54;100.00;100079.16;5170292;28;20042;-77
2021/04/11 00:09:46;;;;;;;84.68;53.63;;;;;;;7.54;100.00;100074.81;5169870;28;20056;-77
2021/04/11 00:12:17;;;;;;;82.40;51.30;;;;;;;7.57;100.00;100076.47;5169618;28;20511;-77
2021/04/11 00:14:47;;;;;;;87.35;55.25;;;;;;;7.56;100.00;100075.59;5170224;28;20025;-77
2021/04/11 00:17:17;;;;;;;87.40;55.72;;;;;;;7.55;100.00;100063.50;5170071;28;20033;-77
2021/04/11 00:19:47;;;;;;;88.97;56.53;;;;;;;7.50;100.00;100056.78;5168434;28;20038;-77
2021/04/11 00:22:18;;;;;;;87.15;53.42;;;;;;;7.53;100.00;100067.06;5170996;28;20034;-77
2021/04/11 00:24:48;;;;;;;92.63;58.65;;;;;;;7.50;100.00;100060.22;5169866;28;20033;-77
2021/04/11 00:27:18;;;;;;;92.55;57.85;;;;;;;7.55;100.00;100057.47;5170162;28;20095;-77
2021/04/11 00:29:48;;;;;;;96.78;57.67;;;;;;;7.54;100.00;100059.22;5170825;28;20038;-77
2021/04/11 00:32:19;;;;;;;94.25;57.45;;;;;;;7.53;100.00;100057.50;5154220;28;20037;-77
2021/04/11 00:34:49;;;;;;;96.93;59.30;;;;;;;7.59;100.00;100049.53;5171196;28;21455;-77
2021/04/11 00:37:19;;;;;;;95.20;58.85;;;;;;;7.60;100.00;100052.97;5170003;28;20096;-77
2021/04/11 00:39:50;;;;;;;94.03;59.85;;;;;;;7.57;100.00;100048.75;5169251;28;20065;-77
2021/04/11 00:42:38;;;;;;;94.63;57.95;;;;;;;7.58;100.00;100040.03;5172039;28;20041;-77
2021/04/11 00:45:16;;;;;;;95.53;59.20;;;;;;;7.60;100.00;100038.22;5172282;28;20044;-77
2021/04/11 00:47:47;;;;;;;94.43;58.05;;;;;;;7.62;100.00;100035.56;5171255;28;20034;-77
2021/04/11 00:50:17;;;;;;;94.70;57.22;;;;;;;7.60;100.00;100027.84;5170187;28;20084;-77
2021/04/11 00:52:48;;;;;;;96.50;60.00;;;;;;;7.62;100.00;100031.22;5170748;28;20121;-77
2021/04/11 00:55:21;;;;;;;95.05;59.08;;;;;;;7.56;100.00;100028.81;5169119;28;20116;-77
2021/04/11 00:57:53;;;;;;;98.88;60.38;;;;;;;7.62;100.00;100017.34;5172264;28;20120;-77
2021/04/11 01:00:27;;;;;;;97.10;60.20;;;;;;;7.60;100.00;100006.16;5167588;28;20495;-77
2021/04/11 01:02:57;;;;;;;95.60;59.78;;;;;;;7.62;100.00;100015.63;5173276;28;20034;-77
2021/04/11 01:05:31;;;;;;;98.88;58.72;;;;;;;7.62;100.00;100013.03;5170001;28;20040;-77
2021/04/11 01:08:10;;;;;;;103.32;60.40;;;;;;;7.59;100.00;100010.53;5171324;28;20034;-77
2021/04/11 01:10:56;;;;;;;97.70;61.63;;;;;;;7.60;100.00;100007.03;5160759;28;20034;-77
2021/04/11 01:13:28;;;;;;;98.38;57.63;;;;;;;7.60;100.00;100009.63;5161084;28;20034;-77
2021/04/11 01:16:00;;;;;;;107.07;63.65;;;;;;;7.60;100.00;99999.22;5160410;28;20658;-77
2021/04/11 01:18:30;;;;;;;111.00;65.47;;;;;;;7.58;100.00;99990.63;5162909;28;20057;-77
2021/04/11 01:21:09;;;;;;;104.50;65.53;;;;;;;7.62;100.00;99993.97;5165312;28;20041;-77
2021/04/11 01:23:50;;;;;;;107.25;64.88;;;;;;;7.62;100.00;99988.75;5162129;28;20232;-77
2021/04/11 01:26:21;;;;;;;107.32;64.07;;;;;;;7.61;100.00;99977.53;5156625;28;20034;-77
2021/04/11 01:28:54;;;;;;;101.55;62.10;;;;;;;7.64;100.00;99980.03;5158943;28;20034;-77
2021/04/11 01:31:28;;;;;;;102.65;62.75;;;;;;;7.65;100.00;99970.44;5154155;28;20088;-77
2021/04/11 01:33:59;;;;;;;110.90;65.05;;;;;;;7.60;100.00;99964.56;5153303;28;23823;-77
2021/04/11 01:36:32;;;;;;;106.32;65.60;;;;;;;7.65;100.00;99955.72;5147729;28;20037;-77
2021/04/11 01:39:08;;;;;;;107.00;63.97;;;;;;;7.66;100.00;99962.63;5149551;28;20084;-77
2021/04/11 01:41:42;;;;;;;105.47;63.85;;;;;;;7.63;100.00;99965.31;5157809;28;20034;-77
2021/04/11 01:44:17;;;;;;;99.85;64.05;;;;;;;7.64;100.00;99953.16;5159996;28;20054;-77
2021/04/11 01:46:49;;;;;;;106.38;64.07;;;;;;;7.66;100.00;99953.97;5159693;28;20125;-77
2021/04/11 01:49:21;;;;;;;101.38;64.68;;;;;;;7.63;100.00;99947.13;5160262;28;20333;-77
2021/04/11 01:52:03;;;;;;;102.28;62.15;;;;;;;7.68;100.00;99952.16;5159454;28;20167;-77
2021/04/11 01:54:35;;;;;;;99.22;62.22;;;;;;;7.69;100.00;99949.50;5164586;28;20532;-77
2021/04/11 01:57:16;;;;;;;103.35;64.60;;;;;;;7.66;100.00;99944.41;5167679;28;20030;-77
2021/04/11 01:59:48;;;;;;;105.82;63.50;;;;;;;7.67;100.00;99943.50;5167784;28;20034;-77
2021/04/11 02:02:18;;;;;;;98.65;62.13;;;;;;;7.71;100.00;99934.69;5167407;28;20476;-77
2021/04/11 02:04:50;;;;;;;101.40;63.58;;;;;;;7.71;100.00;99939.91;5169324;28;20120;-77
2021/04/11 02:07:20;;;;;;;104.07;65.13;;;;;;;7.70;100.00;99926.97;5175137;28;20033;-77
2021/04/11 02:09:51;;;;;;;105.20;64.07;;;;;;;7.73;100.00;99930.28;5174956;28;20052;-77
2021/04/11 02:12:21;;;;;;;101.80;61.45;;;;;;;7.76;100.00;99935.41;5173647;28;20038;-77
2021/04/11 02:14:52;;;;;;;105.50;63.78;;;;;;;7.72;100.00;99928.59;5173343;28;20454;-77
2021/04/11 02:17:22;;;;;;;98.03;62.05;;;;;;;7.76;100.00;99935.41;5174335;28;20034;-77
2021/04/11 02:19:53;;;;;;;96.03;61.50;;;;;;;7.74;100.00;99928.53;5175270;28;20041;-77
2021/04/11 02:22:28;;;;;;;102.68;63.20;;;;;;;7.76;100.00;99924.13;5173136;28;20030;-77
2021/04/11 02:24:59;;;;;;;105.20;63.50;;;;;;;7.75;100.00;99925.91;5172338;28;20036;-77
2021/04/11 02:27:30;;;;;;;105.03;66.00;;;;;;;7.73;100.00;99925.09;5173521;28;20041;-77
2021/04/11 02:30:06;;;;;;;106.82;64.78;;;;;;;7.66;100.00;99926.22;5171147;28;20706;-77
2021/04/11 02:32:37;;;;;;;104.03;63.00;;;;;;;7.67;100.00;99916.66;5172951;28;20038;-77
2021/04/11 02:35:12;;;;;;;106.22;65.00;;;;;;;7.65;100.00;99915.84;5172140;28;20615;-77
2021/04/11 02:37:50;;;;;;;108.90;66.03;;;;;;;7.66;100.00;99912.38;5172560;28;20030;-77
2021/04/11 02:40:29;;;;;;;104.78;65.00;;;;;;;7.69;100.00;99907.91;5173476;28;20045;-77
2021/04/11 02:43:00;;;;;;;105.43;65.80;;;;;;;7.66;100.00;99904.56;5169176;28;20076;-77
2021/04/11 02:45:36;;;;;;;108.00;66.10;;;;;;;7.67;100.00;99914.06;5171434;28;20148;-77
2021/04/11 02:48:08;;;;;;;105.88;66.55;;;;;;;7.72;100.00;99912.97;5171456;28;20387;-77
2021/04/11 02:50:42;;;;;;;111.57;68.72;;;;;;;7.64;100.00;99915.00;5171942;28;20747;-77
2021/04/11 02:53:19;;;;;;;105.38;66.95;;;;;;;7.69;100.00;99907.91;5156194;28;20026;-77
2021/04/11 02:55:50;;;;;;;109.05;66.18;;;;;;;7.70;100.00;99908.75;5170485;28;20033;-77
2021/04/11 02:58:22;;;;;;;108.20;68.88;;;;;;;7.65;100.00;99895.91;5170892;28;20274;-77
2021/04/11 03:01:05;;;;;;;116.20;71.13;;;;;;;7.64;100.00;99896.81;5171542;28;20511;-77
2021/04/11 03:03:35;;;;;;;104.65;65.47;;;;;;;7.72;100.00;99886.16;5170539;28;20029;-77
2021/04/11 03:06:13;;;;;;;110.97;69.63;;;;;;;7.72;100.00;99886.16;5171772;28;20044;-77
2021/04/11 03:08:46;;;;;;;116.82;70.72;;;;;;;7.74;100.00;99874.75;5170249;28;20041;-77
2021/04/11 03:11:29;;;;;;;111.97;69.97;;;;;;;7.77;100.00;99871.22;5172206;28;20040;-77
2021/04/11 03:14:02;;;;;;;111.75;67.55;;;;;;;7.78;100.00;99876.38;5163658;28;20034;-77
2021/04/11 03:16:35;;;;;;;108.63;69.10;;;;;;;7.82;100.00;99877.97;5162918;28;20042;-77
2021/04/11 03:19:06;;;;;;;112.60;68.05;;;;;;;7.82;100.00;99882.31;5164328;28;20032;-77
2021/04/11 03:21:41;;;;;;;113.13;67.55;;;;;;;7.82;100.00;99888.38;5163034;28;20029;-77
2021/04/11 03:24:11;;;;;;;110.70;67.75;;;;;;;7.77;100.00;99886.81;5163123;28;20087;-77
2021/04/11 03:27:02;;;;;;;108.82;67.07;;;;;;;7.83;100.00;99890.06;5155762;28;20042;-77
2021/04/11 03:29:39;;;;;;;109.65;69.65;;;;;;;7.78;100.00;99884.19;5157364;28;20097;-77
2021/04/11 03:32:21;;;;;;;114.47;69.60;;;;;;;7.81;100.00;99891.88;5156245;28;20061;-77
2021/04/11 03:34:54;;;;;;;111.07;68.95;;;;;;;7.78;100.00;99891.97;5156675;28;20121;-77
2021/04/11 03:37:26;;;;;;;103.18;67.88;;;;;;;7.82;100.00;99883.16;5139279;28;20036;-77
2021/04/11 03:39:58;;;;;;;117.97;71.07;;;;;;;7.74;100.00;99889.53;5156346;28;20574;-77
2021/04/11 03:42:31;;;;;;;111.78;69.47;;;;;;;7.82;100.00;99887.50;5159834;28;20034;-77
2021/04/11 03:45:02;;;;;;;108.03;68.40;;;;;;;7.88;100.00;99884.69;5164034;28;20037;-77
2021/04/11 03:47:40;;;;;;;112.63;68.65;;;;;;;7.83;100.00;99894.41;5165524;28;20712;-77
2021/04/11 03:50:19;;;;;;;107.50;68.55;;;;;;;7.80;100.00;99891.91;5164515;28;20048;-77
2021/04/11 03:52:59;;;;;;;114.47;69.38;;;;;;;7.76;100.00;99893.78;5164924;28;22305;-77
2021/04/11 03:55:34;;;;;;;112.18;68.93;;;;;;;7.81;100.00;99888.41;5169219;28;20458;-77
2021/04/11 03:58:09;;;;;;;110.30;69.78;;;;;;;7.77;100.00;99885.09;5170786;28;20041;-77
2021/04/11 04:00:48;;;;;;;107.63;67.88;;;;;;;7.81;100.00;99906.63;5169927;28;20053;-77
2021/04/11 04:03:23;;;;;;;108.95;67.80;;;;;;;7.77;100.00;99897.22;5169632;28;20546;-77
2021/04/11 04:05:54;;;;;;;114.75;70.68;;;;;;;7.75;100.00;99896.44;5171212;28;20042;-77
2021/04/11 04:08:24;;;;;;;116.50;72.05;;;;;;;7.78;100.00;99897.19;5170395;28;21282;-77
2021/04/11 04:11:14;;;;;;;113.57;71.75;;;;;;;7.75;100.00;99902.50;5170623;28;20535;-77
2021/04/11 04:13:50;;;;;;;109.35;67.80;;;;;;;7.84;100.00;99899.56;5171115;28;20036;-77
2021/04/11 04:16:35;;;;;;;110.78;69.95;;;;;;;7.83;100.00;99900.47;5156077;28;20034;-77
2021/04/11 04:19:27;;;;;;;114.10;71.07;;;;;;;7.78;100.00;99902.38;5171846;28;20562;-77
2021/04/11 04:22:06;;;;;;;111.32;69.80;;;;;;;7.77;100.00;99890.28;5171666;28;20041;-77
2021/04/11 04:24:39;;;;;;;108.32;67.28;;;;;;;7.83;100.00;99904.81;5171113;28;20095;-77
2021/04/11 04:27:33;;;;;;;108.30;69.43;;;;;;;7.82;100.00;99882.31;5203699;23;20449;-82
2021/04/11 04:30:25;;;;;;;112.88;70.32;;;;;;;7.77;100.00;99900.69;5200724;28;20102;-82
2021/04/11 04:33:32;;;;;;;111.03;69.85;;;;;;;7.78;100.00;99889.38;5201513;28;20029;-82
2021/04/11 04:36:43;;;;;;;115.85;68.65;;;;;;;7.84;100.00;99890.94;5197183;28;20113;-81
2021/04/11 04:39:46;;;;;;;113.20;72.57;;;;;;;7.78;100.00;99884.19;5201445;28;20025;-83
2021/04/11 04:42:47;;;;;;;116.40;71.70;;;;;;;7.77;100.00;99887.69;5198837;28;20057;-82
2021/04/11 04:49:15;;;;;;;110.25;70.60;;;;;;;7.82;100.00;99867.56;5199243;28;20124;-82
2021/04/11 04:51:51;;;;;;;110.63;67.90;;;;;;;7.81;100.00;99850.25;5189135;28;20045;-82
2021/04/11 04:54:50;;;;;;;120.22;72.15;;;;;;;7.87;100.00;99851.78;5210307;28;20036;-82
2021/04/11 04:57:47;;;;;;;104.25;67.47;;;;;;;7.90;100.00;99847.31;5211694;28;20060;-82
2021/04/11 05:00:20;;;;;;;103.28;64.85;;;;;;;7.97;100.00;99859.19;5182250;28;20048;-82
2021/04/11 05:03:11;;;;;;;108.90;66.72;;;;;;;7.98;100.00;99867.84;5211509;28;20595;-82
2021/04/11 05:06:13;;;;;;;102.47;66.13;;;;;;;7.90;100.00;99865.50;5209499;28;20025;-82
2021/04/11 05:08:53;;;;;;;102.57;63.33;;;;;;;8.01;100.00;99862.56;5205935;28;20033;-82
2021/04/11 05:11:28;;;;;;;100.88;63.05;;;;;;;8.00;100.00;99864.28;5193010;28;20032;-82
2021/04/11 05:14:07;;;;;;;99.35;61.30;;;;;;;7.99;100.00;99864.34;5206684;28;20479;-82
2021/04/11 05:16:46;;;;;;;104.00;62.40;;;;;;;8.08;100.00;99853.59;5209624;28;20045;-82
2021/04/11 05:19:22;;;;;;;99.18;61.22;;;;;;;8.10;100.00;99857.00;5209521;28;20037;-82
2021/04/11 05:22:01;;;;;;;94.57;59.85;;;;;;;8.09;100.00;99856.16;5207945;28;20021;-81
2021/04/11 05:24:45;;;;;;;97.30;59.88;;;;;;;8.08;100.00;99849.22;5191185;28;20022;-82
2021/04/11 05:27:15;;;;;;;90.80;60.20;;;;;;;8.14;100.00;99848.16;5211039;28;20034;-82
2021/04/11 05:29:55;;;;;;;100.82;62.78;;;;;;;8.14;100.00;99851.63;5214689;28;20476;-83
2021/04/11 05:32:25;;;;;;;92.15;59.05;;;;;;;8.20;100.00;99843.59;5210502;28;20109;-83
2021/04/11 05:34:57;;;;;;;92.40;59.03;;;;;;;8.33;100.00;99844.84;5209271;28;20060;-83
2021/04/11 05:37:39;;;;;;;91.25;56.35;;;;;;;8.38;100.00;99842.06;5192390;28;20025;-83
2021/04/11 05:40:18;;;;;;;90.03;57.22;;;;;;;8.33;100.00;99839.63;5210102;28;20075;-83
2021/04/11 05:43:01;;;;;;;83.32;53.65;;;;;;;8.50;100.00;99838.97;5211773;28;20056;-83
2021/04/11 05:45:50;;;;;;;85.53;54.05;;;;;;;8.46;100.00;99840.88;5212877;28;20036;-83
2021/04/11 05:48:37;;;;;;;81.15;52.60;;;;;;;8.48;100.00;99833.84;5213168;28;20029;-83
2021/04/11 05:51:14;;;;;;;82.63;52.05;;;;;;;8.48;100.00;99839.06;5208341;28;20030;-83
2021/04/11 05:53:49;;;;;;;79.60;52.17;;;;;;;8.48;100.00;99840.78;5207947;28;20475;-83
2021/04/11 05:56:23;;;;;;;77.07;52.27;;;;;;;8.56;100.00;99838.75;5192391;28;20262;-83
2021/04/11 05:59:17;;;;;;;79.18;52.70;;;;;;;8.62;100.00;99841.97;5193523;28;20283;-83
2021/04/11 06:01:52;;;;;;;82.20;52.30;;;;;;;8.57;100.00;99843.88;5209669;28;20030;-83
2021/04/11 06:04:51;;;;;;;76.00;51.42;;;;;;;8.59;100.00;99849.88;5218800;28;20037;-84
2021/04/11 06:07:35;;;;;;;75.00;51.47;;;;;;;8.59;100.00;99836.84;5214448;28;20640;-83
2021/04/11 06:10:12;;;;;;;72.38;49.47;;;;;;;8.61;100.00;99850.69;5211217;28;20029;-82
2021/04/11 06:13:04;;;;;;;71.63;47.78;;;;;;;8.65;100.00;99857.47;5208737;28;20045;-82
2021/04/11 06:15:41;;;;;;;69.72;47.72;;;;;;;8.67;100.00;99850.44;5212589;28;20040;-83
2021/04/11 06:18:13;;;;;;;70.65;48.38;;;;;;;8.70;100.00;99859.91;5213849;28;20026;-83
2021/04/11 06:20:46;;;;;;;70.93;47.83;;;;;;;8.78;100.00;99856.09;5191560;28;20071;-83
2021/04/11 06:23:33;;;;;;;69.72;47.53;;;;;;;8.86;100.00;99851.41;5209100;28;20024;-83
2021/04/11 06:26:56;;;;;;;68.72;47.90;;;;;;;8.97;100.00;99848.38;5202114;28;20063;-82
2021/04/11 06:29:33;;;;;;;72.05;48.15;;;;;;;9.10;100.00;99854.78;5187511;28;20033;-83
2021/04/11 06:32:13;;;;;;;69.30;45.47;;;;;;;9.20;100.00;99847.38;5207516;28;20059;-82
2021/04/11 06:34:51;;;;;;;61.40;43.50;;;;;;;9.36;100.00;99832.78;5214555;28;20083;-82
2021/04/11 06:37:26;;;;;;;63.50;44.63;;;;;;;9.48;100.00;99831.41;5207850;28;20025;-82
2021/04/11 06:39:58;;;;;;;60.35;41.92;;;;;;;9.48;100.00;99840.06;5197415;28;20064;-82
2021/04/11 06:42:46;;;;;;;57.70;41.08;;;;;;;9.56;100.00;99840.59;5208066;28;20072;-81
2021/04/11 06:45:29;;;;;;;55.20;40.83;;;;;;;9.65;100.00;99849.78;5208010;28;20025;-82
2021/04/11 06:48:25;;;;;;;61.50;40.72;;;;;;;9.95;100.00;99846.66;5202352;28;20026;-82
2021/04/11 06:51:14;;;;;;;50.80;38.38;;;;;;;10.13;100.00;99838.03;5207785;28;20025;-82
2021/04/11 06:53:54;;;;;;;48.92;35.50;;;;;;;10.61;100.00;99845.34;5196782;28;20034;-82
2021/04/11 06:56:51;;;;;;;43.95;31.52;;;;;;;10.81;100.00;99832.19;5215854;28;20137;-82
2021/04/11 06:59:49;;;;;;;39.55;29.75;;;;;;;11.00;100.00;99833.84;5198893;28;20055;-82
2021/04/11 07:02:35;;;;;;;39.58;27.50;;;;;;;11.51;100.00;99832.09;5211548;28;20018;-82
2021/04/11 07:05:42;;;;;;;35.30;26.98;;;;;;;11.54;100.00;99821.47;5198518;28;20091;-82
2021/04/11 07:08:28;;;;;;;34.65;25.50;;;;;;;12.02;100.00;99824.16;5201084;28;20025;-82
2021/04/11 07:11:17;;;;;;;30.42;24.60;;;;;;;12.09;100.00;99820.28;5195373;28;20025;-82
2021/04/11 07:14:24;;;;;;;29.95;23.77;;;;;;;12.52;97.81;99818.78;5213688;28;20069;-82
2021/04/11 07:17:00;;;;;;;;;;;;;;;13.02;94.74;99818.50;5214350;28;20076;-82
2021/04/11 07:19:54;;;;;;;29.48;21.33;;;;;;;13.24;93.30;99810.25;5193174;28;19952;-82
2021/04/11 07:22:58;;;;;;;28.05;21.55;;;;;;;13.54;93.54;99814.53;5190732;28;20021;-82
2021/04/11 07:25:47;;;;;;;25.23;19.95;;;;;;;14.34;90.18;99817.47;5208336;28;20404;-82
2021/04/11 07:28:23;;;;;;;24.73;19.80;;;;;;;13.57;91.36;99824.00;5204508;28;20093;-82
2021/04/11 07:31:06;;;;;;;30.83;21.67;;;;;;;12.98;95.76;99824.00;5218017;28;20109;-82
2021/04/11 07:34:00;;;;;;;27.10;21.30;;;;;;;12.79;100.00;99823.34;5187597;28;20032;-81
2021/04/11 07:36:42;;;;;;;30.98;22.15;;;;;;;12.45;99.91;99820.91;5217139;28;20037;-81
2021/04/11 07:39:38;;;;;;;30.40;21.38;;;;;;;12.48;100.00;99827.75;5199679;28;20029;-82
2021/04/11 07:42:26;;;;;;;28.25;21.88;;;;;;;12.81;99.91;99828.50;5207808;28;20662;-82
2021/04/11 07:45:23;;;;;;;27.77;20.85;;;;;;;14.73;91.03;99814.94;5190558;28;20124;-82
2021/04/11 07:48:03;;;;;;;24.20;18.67;;;;;;;17.47;81.71;99820.81;5189155;28;20044;-82
2021/04/11 07:51:12;;;;;;;20.90;17.13;;;;;;;18.03;77.40;99813.81;5193107;28;20029;-83
2021/04/11 07:53:59;;;;;;;20.30;15.30;;;;;;;17.39;80.54;99823.19;5110242;28;20142;-82
2021/04/11 07:56:51;;;;;;;20.67;15.20;;;;;;;17.06;82.43;99825.69;5126502;29;20035;-82
2021/04/11 07:59:40;;;;;;;21.70;15.82;;;;;;;17.10;82.92;99826.28;5175436;28;20056;-82
2021/04/11 08:02:55;;;;;;;17.90;15.35;;;;;;;17.99;82.70;99817.69;5209906;28;20454;-83
2021/04/11 08:05:25;;;;;;;19.42;13.48;;;;;;;17.24;81.99;99826.09;5188740;28;20127;-83
2021/04/11 08:08:24;;;;;;;17.65;14.98;;;;;;;16.47;86.83;99824.84;5191431;28;20025;-82
2021/04/11 08:11:19;;;;;;;18.10;14.18;;;;;;;15.07;87.02;99826.66;5201454;28;20505;-82
2021/04/11 08:14:11;;;;;;;19.58;14.70;;;;;;;14.72;93.44;99829.00;5211168;28;20085;-82
2021/04/11 08:33:41;;;;;;;22.23;15.68;;;;;;;14.05;95.83;99836.81;5533746;22;20583;-82
2021/04/11 09:18:24;;;;;;;;;;;;;;;;;;;;;
2021/04/11 09:21:59;;;;;;;;;;;;;;;;;;;;;
2021/04/11 09:32:14;;;;;;;;;;;;;;;;;;;;;
2021/04/11 09:39:06;;;;;;;7.63;3.22;;;;;;;18.12;75.55;99850.13;5156070;28;20128;-84
2021/04/11 09:42:23;;;;;;;8.85;2.70;;;;;;;18.19;74.37;99856.63;5159457;28;20041;-83
2021/04/11 09:48:48;;;;;;;5.25;3.30;;;;;;;16.70;76.69;99876.81;5186388;28;20044;-83
2021/04/11 09:52:13;;;;;;;7.00;3.38;;;;;;;16.01;78.33;99882.56;5185172;28;20034;-83
2021/04/11 09:55:17;;;;;;;5.53;3.42;;;;;;;15.44;78.41;99894.41;5168751;28;20088;-82
2021/04/11 09:58:04;;;;;;;7.10;3.75;;;;;;;14.94;81.43;99894.16;5168748;28;20028;-83
2021/04/11 10:00:57;;;;;;;7.72;3.75;;;;;;;15.08;83.74;99906.44;5169764;28;20499;-82
2021/04/11 10:04:24;;;;;;;9.38;4.47;;;;;;;14.96;83.30;99899.31;5183760;28;20032;-82
2021/04/11 10:07:29;;;;;;;6.35;4.00;;;;;;;14.81;83.85;99902.97;5086822;29;20106;-83
2021/04/11 10:10:31;;;;;;;10.77;4.13;;;;;;;15.11;83.38;99895.69;5088316;29;20027;-83
2021/04/11 10:13:27;;;;;;;5.35;3.58;;;;;;;15.09;81.78;99897.59;5170772;28;20030;-85
2021/04/11 10:16:25;;;;;;;10.18;3.70;;;;;;;15.57;79.99;99884.72;5188302;28;21057;-84
2021/04/11 10:19:17;;;;;;;12.57;6.05;;;;;;;15.69;81.11;99894.44;5171299;28;20737;-84
2021/04/11 10:22:06;;;;;;;10.23;5.38;;;;;;;15.53;80.29;99892.94;5183071;28;20060;-82
2021/04/11 10:24:45;;;;;;;7.38;4.20;;;;;;;15.28;81.45;99903.34;5182018;28;20026;-83
2021/04/11 10:27:27;;;;;;;9.00;4.63;;;;;;;15.38;82.43;99899.22;5189529;23;20041;-82
2021/04/11 10:29:59;;;;;;;10.93;5.05;;;;;;;15.23;81.55;99897.56;5201024;28;20115;-82
2021/04/11 10:32:47;;;;;;;9.57;5.45;;;;;;;14.91;82.54;99910.16;5201592;28;20801;-82
2021/04/11 10:35:17;;;;;;;9.98;4.90;;;;;;;14.68;84.26;99906.44;5201688;28;20225;-82
2021/04/11 10:38:02;;;;;;;11.50;5.30;;;;;;;14.85;83.86;99904.44;5200123;28;20043;-84
2021/04/11 10:40:47;;;;;;;10.55;5.10;;;;;;;15.12;82.70;99885.09;5199361;28;21298;-82
2021/04/11 10:43:55;;;;;;;13.35;5.00;;;;;;;15.06;81.42;99898.66;5197470;28;20037;-84
2021/04/11 10:46:39;;;;;;;7.80;4.70;;;;;;;15.04;81.26;99904.94;5182496;28;20771;-85
2021/04/11 10:49:38;;;;;;;8.55;5.13;;;;;;;15.37;81.41;99903.63;5200299;28;20029;-84
2021/04/11 10:52:21;;;;;;;7.65;4.78;;;;;;;15.47;81.10;99899.44;5197890;28;20033;-82
2021/04/11 10:55:16;;;;;;;6.65;4.82;;;;;;;15.68;82.72;99898.03;5196592;28;20037;-85
2021/04/11 10:58:11;;;;;;;10.90;5.78;;;;;;;15.62;83.91;99908.13;5198425;28;20614;-81
2021/04/11 11:01:09;;;;;;;10.98;5.13;;;;;;;15.68;80.53;99898.03;5197685;28;20488;-82
2021/04/11 11:03:42;;;;;;;11.60;5.85;;;;;;;15.24;82.63;99901.88;5196082;28;20034;-83
2021/04/11 11:06:29;;;;;;;8.20;5.10;;;;;;;15.18;83.53;99908.38;5194215;28;20032;-83
2021/04/11 11:09:23;;;;;;;7.95;5.63;;;;;;;15.14;83.50;99906.88;5194826;28;20033;-82
2021/04/11 11:12:35;;;;;;;9.23;5.30;;;;;;;15.50;83.61;99904.50;5189842;28;20505;-83
2021/04/11 11:15:09;;;;;;;10.80;5.60;;;;;;;15.80;82.14;99913.00;5192370;28;20030;-82
2021/04/11 11:18:04;;;;;;;10.02;5.90;;;;;;;15.53;82.62;99924.56;5192664;28;20037;-84
2021/04/11 11:20:56;;;;;;;12.48;6.78;;;;;;;14.88;87.03;99934.00;5192649;28;20569;-83
2021/04/11 11:23:42;;;;;;;5.47;3.47;;;;;;;14.40;86.55;99945.91;5191266;28;20025;-84
2021/04/11 11:26:37;;;;;;;4.47;2.70;;;;;;;14.12;88.62;99940.59;5192541;28;20113;-83
2021/04/11 11:29:26;;;;;;;6.68;4.00;;;;;;;14.07;88.77;99929.53;5185268;28;21366;-83
2021/04/11 11:32:06;;;;;;;5.88;2.95;;;;;;;13.98;88.98;99959.81;5189019;28;20501;-81
2021/04/11 11:34:42;;;;;;;4.18;2.50;;;;;;;13.79;90.36;99953.09;5189740;28;20041;-82
2021/04/11 11:37:20;;;;;;;4.68;2.45;;;;;;;13.85;89.97;99955.34;5189868;28;20158;-83
2021/04/11 11:40:06;;;;;;;3.40;2.17;;;;;;;14.05;89.94;99958.50;5188916;28;21394;-83
2021/04/11 11:42:59;;;;;;;3.37;2.07;;;;;;;13.89;89.55;99967.38;5190758;28;20116;-80
2021/04/11 11:45:51;;;;;;;3.47;2.00;;;;;;;14.10;89.00;99971.38;5180416;28;21233;-82
2021/04/11 11:48:46;;;;;;;3.58;1.92;;;;;;;14.32;88.26;99977.06;5186390;28;20039;-81
2021/04/11 11:51:16;;;;;;;3.97;2.17;;;;;;;14.29;88.17;99974.63;5184420;28;20172;-83
2021/04/11 11:54:03;;;;;;;3.70;2.20;;;;;;;14.24;88.43;99974.91;5192017;28;20037;-82
2021/04/11 11:56:43;;;;;;;3.45;2.30;;;;;;;14.02;89.46;99981.47;5193267;28;20057;-81
2021/04/11 11:59:31;;;;;;;5.22;2.38;;;;;;;14.12;90.00;99985.25;5174964;28;20096;-84
2021/04/11 12:02:12;;;;;;;3.97;2.00;;;;;;;13.63;90.53;99994.31;5189923;28;20045;-81
2021/04/11 12:04:55;;;;;;;3.85;2.20;;;;;;;14.01;90.90;99983.28;5192534;28;20123;-83
2021/04/11 12:07:33;;;;;;;5.13;2.35;;;;;;;14.08;90.36;99991.66;5192964;28;20056;-83
2021/04/11 12:10:23;;;;;;;3.67;2.20;;;;;;;14.30;90.60;99985.06;5175467;28;20029;-81
2021/04/11 12:12:58;;;;;;;4.43;2.20;;;;;;;14.03;90.74;99996.31;5192922;28;20041;-85
2021/04/11 12:15:42;;;;;;;2.80;2.03;;;;;;;13.84;91.41;100006.19;5192572;28;20041;-81
2021/04/11 12:18:20;;;;;;;3.63;2.00;;;;;;;13.47;92.53;100006.59;5192534;28;20110;-82
2021/04/11 12:21:19;;;;;;;4.85;2.40;;;;;;;13.21;95.20;100017.72;5191729;28;20030;-83
2021/04/11 12:24:01;;;;;;;3.85;2.25;;;;;;;13.04;96.06;100028.28;5192641;28;20048;-83
2021/04/11 12:26:33;;;;;;;5.03;2.83;;;;;;;12.91;97.38;100033.28;5190958;28;20044;-83
2021/04/11 12:29:07;;;;;;;2.85;2.05;;;;;;;12.73;97.92;100043.94;5191007;28;20029;-81
2021/04/11 12:31:46;;;;;;;4.10;1.98;;;;;;;12.33;98.90;100038.22;5190677;28;20048;-81
2021/04/11 12:34:20;;;;;;;3.20;2.00;;;;;;;12.20;99.17;100051.09;5188584;28;20093;-83
2021/04/11 12:36:53;;;;;;;4.18;1.92;;;;;;;12.13;99.57;100048.84;5189641;28;20034;-82
2021/04/11 12:39:29;;;;;;;3.75;2.05;;;;;;;12.05;100.00;100051.84;5190498;28;20044;-82
2021/04/11 12:42:08;;;;;;;4.57;1.80;;;;;;;11.80;100.00;100056.59;5191035;28;20048;-79
2021/04/11 12:44:51;;;;;;;6.38;1.88;;;;;;;11.95;99.63;100052.41;5190976;28;20033;-82
2021/04/11 12:47:36;;;;;;;4.40;2.00;;;;;;;12.09;100.00;100049.94;5186136;28;20042;-83
2021/04/11 12:50:22;;;;;;;5.05;2.88;;;;;;;11.65;100.00;100051.25;5192170;28;20103;-81
2021/04/11 12:53:21;;;;;;;8.23;4.47;;;;;;;11.48;100.00;100052.00;5191130;28;20068;-81
2021/04/11 12:55:55;;;;;;;23.30;13.00;;;;;;;11.53;100.00;100047.44;5192337;28;20088;-82
2021/04/11 12:58:39;;;;;;;17.48;10.95;;;;;;;11.43;100.00;100051.41;5189997;28;20036;-83
2021/04/11 13:01:12;;;;;;;12.95;10.23;;;;;;;11.14;100.00;100048.44;5186846;28;20197;-80
2021/04/11 13:04:02;;;;;;;13.07;10.85;;;;;;;10.92;100.00;100052.13;5186257;28;20787;-81
2021/04/11 13:06:52;;;;;;;15.60;12.18;;;;;;;10.96;100.00;100064.13;5188056;28;20124;-82
2021/04/11 13:09:58;;;;;;;15.85;12.80;;;;;;;10.74;100.00;100066.00;5185202;28;20111;-81
2021/04/11 13:12:46;;;;;;;18.08;15.25;;;;;;;10.66;100.00;100068.97;5186103;28;20136;-82
2021/04/11 13:15:30;;;;;;;19.02;15.55;;;;;;;10.54;100.00;100063.44;5187428;28;20068;-84
2021/04/11 13:18:19;;;;;;;24.17;18.08;;;;;;;10.58;100.00;100060.63;5191030;28;20057;-80
2021/04/11 13:21:41;;;;;;;25.67;20.02;;;;;;;10.58;100.00;100065.84;5189455;28;20037;-80
2021/04/11 13:24:39;;;;;;;23.92;20.25;;;;;;;10.35;100.00;100078.19;5164466;28;20041;-81
2021/04/11 13:27:32;;;;;;;23.65;18.52;;;;;;;10.38;100.00;100101.56;5189073;28;20069;-81
2021/04/11 13:30:15;;;;;;;18.85;12.98;;;;;;;9.91;100.00;100098.28;5188766;28;20041;-81
2021/04/11 13:33:09;;;;;;;17.50;13.75;;;;;;;9.85;100.00;100102.91;5189089;28;20144;-81
2021/04/11 13:35:52;;;;;;;18.45;14.93;;;;;;;9.80;100.00;100115.28;5192649;28;20099;-80
2021/04/11 13:38:28;;;;;;;20.83;15.27;;;;;;;9.57;100.00;100118.78;5189108;28;20880;-81
2021/04/11 13:41:08;;;;;;;21.80;16.33;;;;;;;9.61;100.00;100124.72;5174270;28;20037;-80
2021/04/11 13:44:09;;;;;;;20.65;16.45;;;;;;;9.41;99.75;100127.25;5188433;28;20682;-80
2021/04/11 13:47:06;;;;;;;19.40;16.15;;;;;;;9.03;99.04;100145.25;5188120;28;20467;-82
2021/04/11 13:49:44;;;;;;;25.05;17.65;;;;;;;9.03;99.50;100151.28;5188121;28;20056;-81